createdAt,value
2022-10-01T00:02:16.983Z,14.59
2022-10-01T00:04:44.645Z,14.55
2022-10-01T00:07:15.430Z,14.50
2022-10-01T00:09:43.149Z,14.48
2022-10-01T00:12:10.923Z,14.45
2022-10-01T00:14:39.628Z,14.48
2022-10-01T00:17:07.362Z,14.49
2022-10-01T00:19:35.050Z,14.51
2022-10-01T00:22:02.854Z,14.52
2022-10-01T00:24:30.520Z,14.53
2022-10-01T00:26:58.209Z,14.52
2022-10-01T00:29:25.919Z,14.51
2022-10-01T00:31:53.573Z,14.47
2022-10-01T00:34:21.259Z,14.47
2022-10-01T00:36:49.488Z,14.50
2022-10-01T00:39:17.198Z,14.53
2022-10-01T00:41:44.990Z,14.55
2022-10-01T00:44:33.208Z,14.44
2022-10-01T00:47:14.219Z,14.27
2022-10-01T00:49:43.501Z,14.31
2022-10-01T00:52:16.293Z,14.38
2022-10-01T00:54:49.465Z,14.40
2022-10-01T00:57:21.103Z,14.44
2022-10-01T00:59:50.622Z,14.46
2022-10-01T01:02:18.244Z,14.44
2022-10-01T01:04:46.213Z,14.47
2022-10-01T01:07:14.705Z,14.48
2022-10-01T01:09:49.582Z,14.51
2022-10-01T01:12:33.932Z,14.51
2022-10-01T01:15:12.377Z,14.51
2022-10-01T01:18:09.809Z,14.46
2022-10-01T01:21:08.146Z,14.26
2022-10-01T01:24:02.612Z,14.17
2022-10-01T01:26:36.863Z,14.19
2022-10-01T01:29:17.198Z,14.19
2022-10-01T01:31:46.853Z,14.11
2022-10-01T01:34:23.181Z,14.08
2022-10-01T01:36:58.719Z,14.10
2022-10-01T01:39:29.997Z,14.13
2022-10-01T01:42:03.786Z,14.15
2022-10-01T01:44:37.306Z,14.04
2022-10-01T01:47:07.553Z,13.89
2022-10-01T01:49:36.074Z,13.89
2022-10-01T01:52:16.072Z,13.93
2022-10-01T01:54:49.823Z,13.99
2022-10-01T01:57:19.933Z,14.08
2022-10-01T01:59:47.993Z,14.14
2022-10-01T02:02:23.083Z,14.13
2022-10-01T02:04:56.379Z,14.11
2022-10-01T02:07:36.346Z,14.19
2022-10-01T02:10:25.888Z,14.23
2022-10-01T02:13:11.523Z,14.25
2022-10-01T02:15:56.313Z,14.27
2022-10-01T02:18:57.287Z,14.29
2022-10-01T02:21:40.725Z,14.26
2022-10-01T02:24:21.146Z,13.96
2022-10-01T02:26:51.059Z,13.82
2022-10-01T02:29:22.148Z,13.83
2022-10-01T02:31:53.606Z,13.77
2022-10-01T02:34:25.619Z,13.73
2022-10-01T02:36:55.329Z,13.69
2022-10-01T02:39:27.309Z,13.72
2022-10-01T02:41:56.868Z,13.77
2022-10-01T02:44:38.214Z,13.80
2022-10-01T02:47:45.245Z,13.79
2022-10-01T02:50:14.270Z,13.70
2022-10-01T02:52:58.668Z,13.77
2022-10-01T02:55:47.400Z,13.80
2022-10-01T02:58:15.097Z,13.80
2022-10-01T03:00:42.749Z,13.79
2022-10-01T03:03:10.408Z,13.79
2022-10-01T03:05:38.070Z,13.77
2022-10-01T03:08:05.691Z,13.79
2022-10-01T03:10:33.858Z,13.82
2022-10-01T03:13:01.968Z,13.84
2022-10-01T03:15:29.612Z,13.87
2022-10-01T03:17:57.186Z,13.89
2022-10-01T03:20:24.790Z,13.90
2022-10-01T03:22:52.671Z,13.89
2022-10-01T03:25:20.225Z,13.87
2022-10-01T03:27:52.336Z,13.86
2022-10-01T03:30:20.101Z,13.84
2022-10-01T03:32:47.690Z,13.83
2022-10-01T03:35:15.572Z,13.81
2022-10-01T03:37:43.153Z,13.79
2022-10-01T03:40:10.891Z,13.78
2022-10-01T03:42:38.771Z,13.77
2022-10-01T03:45:06.863Z,13.75
2022-10-01T03:47:34.440Z,13.74
2022-10-01T03:50:02.082Z,13.73
2022-10-01T03:52:30.323Z,13.72
2022-10-01T03:54:58.279Z,13.57
2022-10-01T03:57:25.884Z,13.52
2022-10-01T03:59:53.488Z,13.51
2022-10-01T04:02:22.136Z,13.46
2022-10-01T04:04:49.839Z,13.44
2022-10-01T04:07:17.478Z,13.43
2022-10-01T04:09:45.143Z,13.36
2022-10-01T04:12:12.821Z,13.34
2022-10-01T04:14:40.389Z,13.29
2022-10-01T04:17:08.018Z,13.23
2022-10-01T04:19:35.739Z,13.18
2022-10-01T04:22:05.763Z,13.15
2022-10-01T04:24:36.360Z,13.09
2022-10-01T04:27:04.017Z,13.05
2022-10-01T04:29:31.558Z,13.02
2022-10-01T04:31:59.478Z,12.98
2022-10-01T04:34:47.073Z,12.96
2022-10-01T04:37:14.719Z,12.92
2022-10-01T04:39:42.238Z,12.90
2022-10-01T04:42:09.843Z,12.88
2022-10-01T04:44:37.391Z,12.86
2022-10-01T04:47:05.231Z,12.85
2022-10-01T04:49:33.651Z,12.82
2022-10-01T04:52:01.471Z,12.81
2022-10-01T04:54:29.073Z,12.80
2022-10-01T04:56:58.411Z,12.77
2022-10-01T04:59:26.079Z,12.75
2022-10-01T05:01:53.786Z,12.75
2022-10-01T05:04:21.360Z,12.74
2022-10-01T05:06:49.127Z,12.72
2022-10-01T05:09:16.782Z,12.70
2022-10-01T05:11:44.410Z,12.69
2022-10-01T05:14:12.449Z,12.69
2022-10-01T05:16:40.128Z,12.67
2022-10-01T05:19:07.882Z,12.66
2022-10-01T05:21:37.519Z,12.66
2022-10-01T05:24:05.831Z,12.65
2022-10-01T05:26:33.630Z,12.65
2022-10-01T05:29:01.472Z,12.65
2022-10-01T05:31:29.129Z,12.64
2022-10-01T05:33:56.939Z,12.65
2022-10-01T05:36:24.655Z,12.67
2022-10-01T05:38:52.560Z,12.70
2022-10-01T05:41:20.334Z,12.72
2022-10-01T05:43:49.443Z,12.75
2022-10-01T05:46:17.283Z,12.77
2022-10-01T05:48:45.419Z,12.80
2022-10-01T05:51:16.324Z,12.83
2022-10-01T05:53:47.089Z,12.84
2022-10-01T05:56:17.824Z,12.88
2022-10-01T05:58:46.953Z,12.93
2022-10-01T06:01:14.680Z,13.05
2022-10-01T06:03:43.030Z,13.14
2022-10-01T06:06:10.781Z,13.27
2022-10-01T06:08:38.416Z,13.39
2022-10-01T06:11:06.291Z,13.50
2022-10-01T06:13:35.982Z,13.62
2022-10-01T06:16:03.746Z,13.74
2022-10-01T06:18:31.425Z,13.85
2022-10-01T06:20:59.942Z,13.97
2022-10-01T06:23:28.141Z,14.09
2022-10-01T06:25:55.794Z,14.15
2022-10-01T06:28:23.458Z,14.17
2022-10-01T06:30:51.104Z,14.24
2022-10-01T06:33:19.491Z,14.32
2022-10-01T06:35:51.734Z,14.32
2022-10-01T06:38:21.903Z,14.24
2022-10-01T06:41:00.602Z,14.22
2022-10-01T06:43:30.263Z,14.17
2022-10-01T06:46:02.590Z,14.16
2022-10-01T06:48:31.561Z,14.12
2022-10-01T06:50:59.890Z,14.09
2022-10-01T06:53:28.686Z,14.08
2022-10-01T06:55:56.345Z,14.07
2022-10-01T06:58:28.411Z,14.09
2022-10-01T07:01:03.543Z,14.11
2022-10-01T07:03:31.675Z,14.06
2022-10-01T07:06:04.918Z,14.10
2022-10-01T07:08:33.513Z,14.15
2022-10-01T07:11:04.986Z,14.34
2022-10-01T07:13:32.765Z,14.49
2022-10-01T07:16:03.745Z,14.62
2022-10-01T07:18:31.602Z,14.60
2022-10-01T07:20:59.676Z,14.50
2022-10-01T07:23:27.361Z,14.40
2022-10-01T07:25:55.088Z,14.36
2022-10-01T07:28:25.817Z,14.40
2022-10-01T07:31:06.927Z,14.46
2022-10-01T07:33:34.762Z,14.44
2022-10-01T07:36:04.404Z,14.45
2022-10-01T07:38:33.843Z,14.47
2022-10-01T07:41:03.053Z,14.53
2022-10-01T07:43:32.645Z,14.56
2022-10-01T07:46:02.280Z,14.59
2022-10-01T07:48:31.227Z,14.73
2022-10-01T07:50:58.919Z,14.93
2022-10-01T07:53:27.153Z,15.14
2022-10-01T07:55:54.883Z,15.23
2022-10-01T07:58:24.371Z,15.34
2022-10-01T08:00:58.417Z,15.47
2022-10-01T08:03:26.368Z,15.53
2022-10-01T08:05:54.802Z,15.60
2022-10-01T08:08:22.644Z,15.67
2022-10-01T08:10:51.138Z,15.65
2022-10-01T08:13:18.911Z,15.69
2022-10-01T08:15:53.508Z,15.76
2022-10-01T08:18:22.662Z,15.83
2022-10-01T08:20:50.739Z,15.99
2022-10-01T08:23:18.812Z,16.19
2022-10-01T08:25:48.120Z,16.32
2022-10-01T08:28:16.625Z,16.51
2022-10-01T08:30:44.494Z,16.63
2022-10-01T08:33:13.657Z,16.73
2022-10-01T08:35:43.718Z,16.84
2022-10-01T08:38:13.197Z,16.86
2022-10-01T08:40:50.115Z,16.79
2022-10-01T08:43:36.537Z,16.65
2022-10-01T08:46:13.919Z,16.72
2022-10-01T08:49:02.960Z,16.86
2022-10-01T08:51:45.782Z,16.80
2022-10-01T08:54:43.758Z,16.66
2022-10-01T08:57:25.705Z,16.80
2022-10-01T08:59:57.970Z,16.87
2022-10-01T09:02:28.810Z,17.03
2022-10-01T09:05:03.143Z,17.12
2022-10-01T09:07:52.977Z,17.15
2022-10-01T09:10:29.698Z,17.26
2022-10-01T09:13:22.205Z,17.36
2022-10-01T09:16:11.343Z,17.53
2022-10-01T09:19:23.076Z,17.62
2022-10-01T09:21:58.183Z,17.66
2022-10-01T09:24:42.973Z,17.59
2022-10-01T09:27:15.500Z,17.44
2022-10-01T09:30:16.195Z,17.46
2022-10-01T09:32:50.993Z,17.43
2022-10-01T09:35:33.007Z,17.39
2022-10-01T09:38:09.397Z,17.40
2022-10-01T09:40:46.884Z,17.37
2022-10-01T09:43:15.385Z,17.28
2022-10-01T09:45:43.205Z,17.25
2022-10-01T09:48:25.075Z,17.29
2022-10-01T09:50:59.283Z,17.13
2022-10-01T09:53:35.296Z,17.11
2022-10-01T09:56:15.065Z,17.17
2022-10-01T09:58:48.375Z,17.16
2022-10-01T10:01:27.306Z,17.11
2022-10-01T10:03:58.477Z,17.09
2022-10-01T10:06:28.417Z,17.01
2022-10-01T10:08:58.466Z,16.91
2022-10-01T10:11:29.300Z,16.89
2022-10-01T10:14:02.582Z,16.86
2022-10-01T10:16:48.149Z,16.81
2022-10-01T10:19:22.927Z,16.74
2022-10-01T10:21:57.272Z,16.84
2022-10-01T10:24:33.773Z,16.91
2022-10-01T10:27:04.371Z,16.78
2022-10-01T10:29:37.173Z,16.74
2022-10-01T10:32:21.324Z,16.72
2022-10-01T10:34:49.896Z,16.61
2022-10-01T10:37:23.597Z,16.66
2022-10-01T10:39:52.524Z,16.63
2022-10-01T10:42:22.860Z,16.50
2022-10-01T10:44:54.805Z,16.37
2022-10-01T10:47:24.485Z,16.39
2022-10-01T10:49:57.109Z,16.44
2022-10-01T10:52:37.005Z,16.50
2022-10-01T10:55:19.736Z,16.55
2022-10-01T10:57:47.877Z,16.53
2022-10-01T11:00:27.096Z,16.54
2022-10-01T11:03:00.195Z,16.50
2022-10-01T11:05:32.858Z,16.56
2022-10-01T11:08:07.357Z,16.67
2022-10-01T11:10:59.820Z,16.79
2022-10-01T11:13:27.658Z,16.88
2022-10-01T11:16:02.844Z,16.99
2022-10-01T11:18:36.902Z,16.94
2022-10-01T11:21:25.932Z,16.96
2022-10-01T11:24:11.701Z,17.01
2022-10-01T11:27:06.403Z,17.14
2022-10-01T11:29:44.256Z,17.13
2022-10-01T11:32:50.042Z,17.24
2022-10-01T11:35:29.081Z,17.28
2022-10-01T11:37:59.991Z,17.40
2022-10-01T11:40:33.525Z,17.37
2022-10-01T11:43:11.449Z,17.37
2022-10-01T11:45:47.145Z,17.35
2022-10-01T11:48:31.046Z,17.38
2022-10-01T11:51:07.899Z,17.35
2022-10-01T11:53:45.601Z,17.50
2022-10-01T11:56:46.360Z,17.60
2022-10-01T11:59:25.079Z,17.58
2022-10-01T12:02:02.341Z,17.48
2022-10-01T12:04:39.033Z,17.44
2022-10-01T12:07:38.532Z,17.52
2022-10-01T12:10:38.316Z,17.46
2022-10-01T12:13:33.001Z,17.47
2022-10-01T12:16:13.132Z,17.60
2022-10-01T12:18:40.993Z,17.66
2022-10-01T12:21:26.951Z,17.56
2022-10-01T12:24:04.149Z,17.46
2022-10-01T12:26:45.308Z,17.39
2022-10-01T12:29:24.950Z,17.40
2022-10-01T12:32:04.926Z,17.44
2022-10-01T12:34:45.119Z,17.44
2022-10-01T12:37:33.432Z,17.67
2022-10-01T12:40:19.762Z,17.86
2022-10-01T12:43:22.779Z,17.95
2022-10-01T12:46:18.418Z,17.99
2022-10-01T12:48:56.941Z,17.97
2022-10-01T12:51:53.624Z,17.98
2022-10-01T12:54:49.034Z,18.04
2022-10-01T12:57:50.280Z,18.11
2022-10-01T13:00:25.115Z,18.08
2022-10-01T13:02:53.350Z,18.07
2022-10-01T13:05:24.054Z,18.06
2022-10-01T13:08:14.722Z,17.94
2022-10-01T13:10:54.080Z,17.83
2022-10-01T13:13:27.239Z,17.76
2022-10-01T13:16:07.184Z,17.70
2022-10-01T13:18:42.213Z,17.65
2022-10-01T13:21:48.052Z,17.72
2022-10-01T13:24:31.093Z,17.67
2022-10-01T13:27:05.897Z,17.68
2022-10-01T13:29:50.829Z,17.64
2022-10-01T13:32:34.371Z,17.63
2022-10-01T13:35:21.487Z,17.60
2022-10-01T13:37:49.164Z,17.55
2022-10-01T13:40:35.697Z,17.56
2022-10-01T13:43:18.443Z,17.59
2022-10-01T13:45:49.043Z,17.61
2022-10-01T13:48:26.341Z,17.55
2022-10-01T13:51:07.396Z,17.46
2022-10-01T13:53:41.189Z,17.36
2022-10-01T13:56:30.216Z,17.31
2022-10-01T13:58:58.311Z,17.28
2022-10-01T14:01:40.588Z,17.33
2022-10-01T14:04:26.682Z,17.27
2022-10-01T14:07:02.687Z,17.25
2022-10-01T14:09:52.891Z,17.26
2022-10-01T14:12:47.717Z,17.23
2022-10-01T14:15:38.713Z,17.29
2022-10-01T14:18:30.799Z,17.22
2022-10-01T14:21:07.872Z,17.13
2022-10-01T14:23:50.113Z,17.05
2022-10-01T14:26:39.972Z,17.00
2022-10-01T14:29:17.162Z,16.92
2022-10-01T14:32:21.206Z,16.87
2022-10-01T14:35:21.173Z,16.75
2022-10-01T14:37:50.448Z,16.71
2022-10-01T14:40:21.476Z,16.73
2022-10-01T14:42:59.372Z,16.71
2022-10-01T14:45:28.420Z,16.63
2022-10-01T14:48:07.261Z,16.59
2022-10-01T14:50:37.521Z,16.56
2022-10-01T14:53:06.947Z,16.56
2022-10-01T14:55:35.341Z,16.51
2022-10-01T14:58:05.378Z,16.48
2022-10-01T15:00:33.605Z,16.48
2022-10-01T15:03:04.268Z,16.51
2022-10-01T15:05:34.367Z,16.50
2022-10-01T15:08:23.932Z,16.53
2022-10-01T15:10:56.509Z,16.53
2022-10-01T15:13:29.204Z,16.43
2022-10-01T15:15:57.138Z,16.27
2022-10-01T15:18:26.125Z,16.20
2022-10-01T15:21:00.085Z,16.20
2022-10-01T15:23:30.703Z,16.15
2022-10-01T15:26:01.652Z,16.13
2022-10-01T15:28:33.034Z,16.07
2022-10-01T15:31:06.457Z,16.01
2022-10-01T15:33:37.371Z,15.98
2022-10-01T15:36:07.761Z,15.95
2022-10-01T15:38:36.641Z,15.89
2022-10-01T15:41:29.909Z,15.90
2022-10-01T15:43:54.241Z,15.89
2022-10-01T15:46:35.507Z,15.92
2022-10-01T15:49:24.348Z,15.90
2022-10-01T15:52:23.331Z,15.89
2022-10-01T15:54:59.338Z,15.90
2022-10-01T15:57:30.365Z,15.84
2022-10-01T15:59:59.094Z,15.82
2022-10-01T16:02:30.522Z,15.81
2022-10-01T16:05:09.193Z,15.77
2022-10-01T16:07:38.095Z,15.70
2022-10-01T16:10:34.705Z,15.70
2022-10-01T16:13:27.292Z,15.71
2022-10-01T16:16:07.499Z,15.67
2022-10-01T16:18:37.730Z,15.61
2022-10-01T16:21:07.159Z,15.63
2022-10-01T16:23:48.179Z,15.63
2022-10-01T16:26:33.627Z,15.60
2022-10-01T16:29:07.336Z,15.57
2022-10-01T16:31:37.076Z,15.51
2022-10-01T16:34:11.265Z,15.40
2022-10-01T16:36:39.398Z,15.35
2022-10-01T16:39:07.616Z,15.33
2022-10-01T16:41:36.137Z,15.35
2022-10-01T16:44:05.684Z,15.36
2022-10-01T16:46:33.606Z,15.32
2022-10-01T16:49:01.362Z,15.30
2022-10-01T16:51:29.230Z,15.32
2022-10-01T16:53:57.241Z,15.34
2022-10-01T16:56:27.315Z,15.34
2022-10-01T16:58:55.288Z,15.39
2022-10-01T17:01:23.301Z,15.42
2022-10-01T17:03:51.066Z,15.39
2022-10-01T17:06:18.795Z,15.43
2022-10-01T17:08:49.173Z,15.47
2022-10-01T17:11:18.216Z,15.48
2022-10-01T17:13:46.048Z,15.52
2022-10-01T17:16:13.871Z,15.48
2022-10-01T17:18:44.264Z,15.48
2022-10-01T17:21:14.208Z,15.48
2022-10-01T17:23:53.389Z,15.51
2022-10-01T17:26:35.571Z,15.49
2022-10-01T17:29:03.679Z,15.52
2022-10-01T17:31:31.537Z,15.50
2022-10-01T17:34:01.887Z,15.46
2022-10-01T17:36:34.239Z,15.48
2022-10-01T17:39:03.495Z,15.46
2022-10-01T17:41:31.534Z,15.46
2022-10-01T17:43:59.252Z,15.45
2022-10-01T17:46:27.188Z,15.44
2022-10-01T17:49:02.153Z,15.45
2022-10-01T17:51:30.181Z,15.47
2022-10-01T17:53:58.437Z,15.48
2022-10-01T17:56:26.239Z,15.50
2022-10-01T17:58:54.926Z,15.53
2022-10-01T18:01:23.023Z,15.52
2022-10-01T18:03:55.908Z,15.54
2022-10-01T18:06:24.809Z,15.47
2022-10-01T18:08:56.814Z,15.45
2022-10-01T18:11:27.334Z,15.43
2022-10-01T18:13:55.289Z,15.38
2022-10-01T18:16:23.904Z,15.40
2022-10-01T18:21:48.405Z,15.36
2022-10-01T18:24:17.057Z,15.32
2022-10-01T18:26:45.921Z,15.29
2022-10-01T18:29:19.468Z,15.31
2022-10-01T18:31:52.634Z,15.34
2022-10-01T18:34:47.866Z,15.30
2022-10-01T18:37:15.577Z,15.20
2022-10-01T18:39:45.770Z,15.20
2022-10-01T18:42:19.499Z,15.20
2022-10-01T18:44:57.096Z,15.21
2022-10-01T18:47:35.111Z,15.19
2022-10-01T18:50:25.273Z,15.20
2022-10-01T18:52:52.844Z,15.13
2022-10-01T18:55:36.416Z,15.15
2022-10-01T18:58:26.013Z,15.14
2022-10-01T19:01:09.108Z,15.12
2022-10-01T19:04:02.215Z,15.12
2022-10-01T19:06:45.372Z,15.08
2022-10-01T19:09:27.332Z,15.11
2022-10-01T19:12:16.388Z,15.08
2022-10-01T19:15:11.013Z,15.04
2022-10-01T19:17:54.232Z,15.00
2022-10-01T19:20:46.379Z,14.96
2022-10-01T19:23:46.347Z,14.97
2022-10-01T19:26:31.775Z,14.98
2022-10-01T19:29:17.960Z,14.99
2022-10-01T19:31:51.961Z,14.99
2022-10-01T19:34:30.473Z,15.00
2022-10-01T19:37:06.332Z,15.00
2022-10-01T19:39:39.560Z,14.99
2022-10-01T19:42:12.565Z,15.01
2022-10-01T19:44:46.336Z,15.00
2022-10-01T19:47:29.259Z,15.04
2022-10-01T19:50:06.571Z,15.03
2022-10-01T19:52:40.153Z,15.04
2022-10-01T19:55:16.158Z,15.07
2022-10-01T19:57:44.851Z,15.08
2022-10-01T20:00:43.176Z,15.08
2022-10-01T20:06:43.550Z,15.02
2022-10-01T20:09:27.536Z,15.02
2022-10-01T20:12:12.859Z,15.05
2022-10-01T20:15:23.683Z,15.06
2022-10-01T20:18:28.161Z,15.04
2022-10-01T20:21:30.101Z,14.97
2022-10-01T20:24:35.552Z,14.94
2022-10-01T20:28:12.071Z,14.93
2022-10-01T20:31:20.212Z,14.91
2022-10-01T20:34:13.602Z,14.90
2022-10-01T20:37:40.313Z,14.81
2022-10-01T20:40:29.488Z,14.82
2022-10-01T20:43:09.501Z,14.87
2022-10-01T20:45:40.554Z,14.90
2022-10-01T20:51:37.443Z,14.90
2022-10-01T20:54:13.780Z,14.86
2022-10-01T20:57:08.695Z,14.85
2022-10-01T20:59:41.270Z,14.79
2022-10-01T21:02:17.779Z,14.78
2022-10-01T21:04:57.092Z,14.77
2022-10-01T21:07:38.576Z,14.72
2022-10-01T21:10:36.516Z,14.73
2022-10-01T21:13:31.853Z,14.74
2022-10-01T21:16:37.921Z,14.79
2022-10-01T21:19:31.023Z,14.85
2022-10-01T21:22:29.696Z,14.88
2022-10-01T21:25:16.703Z,14.92
2022-10-01T21:28:00.270Z,14.93
2022-10-01T21:30:36.252Z,14.93
2022-10-01T21:33:19.042Z,14.89
2022-10-01T21:35:58.481Z,14.92
2022-10-01T21:38:37.685Z,14.92
2022-10-01T21:41:27.798Z,14.92
2022-10-01T21:44:16.356Z,14.94
2022-10-01T21:47:03.674Z,14.88
2022-10-01T21:50:02.142Z,14.77
2022-10-01T21:52:45.475Z,14.74
2022-10-01T21:55:31.351Z,14.78
2022-10-01T21:58:10.933Z,14.81
2022-10-01T22:00:38.942Z,14.77
2022-10-01T22:03:19.895Z,14.76
2022-10-01T22:05:53.241Z,14.76
2022-10-01T22:08:29.591Z,14.73
2022-10-01T22:11:02.844Z,14.79
2022-10-01T22:13:35.720Z,14.80
2022-10-01T22:16:16.101Z,14.83
2022-10-01T22:18:49.223Z,14.85
2022-10-01T22:21:31.050Z,14.91
2022-10-01T22:24:15.521Z,14.92
2022-10-01T22:26:49.311Z,14.85
2022-10-01T22:29:21.858Z,14.79
2022-10-01T22:31:54.355Z,14.74
2022-10-01T22:34:26.201Z,14.72
2022-10-01T22:37:04.759Z,14.77
2022-10-01T22:39:42.722Z,14.80
2022-10-01T22:42:42.682Z,14.81
2022-10-01T22:45:15.684Z,14.75
2022-10-01T22:48:07.646Z,14.57
2022-10-01T22:50:46.692Z,14.51
2022-10-01T22:53:14.420Z,14.45
2022-10-01T22:55:55.397Z,14.41
2022-10-01T22:58:38.424Z,14.34
2022-10-01T23:01:33.969Z,14.44
2022-10-01T23:04:26.419Z,14.43
2022-10-01T23:07:28.671Z,14.39
2022-10-01T23:10:08.463Z,14.32
2022-10-01T23:13:05.513Z,14.34
2022-10-01T23:15:49.676Z,14.25
2022-10-01T23:18:34.573Z,14.22
2022-10-01T23:21:10.141Z,14.30
2022-10-01T23:23:40.792Z,14.32
2022-10-01T23:26:46.521Z,14.40
2022-10-01T23:29:19.482Z,14.37
2022-10-01T23:32:07.350Z,14.37
2022-10-01T23:34:54.532Z,14.31
2022-10-01T23:37:47.619Z,14.35
2022-10-01T23:40:20.890Z,14.36
2022-10-01T23:43:05.625Z,14.41
2022-10-01T23:45:52.930Z,14.41
2022-10-01T23:48:31.078Z,14.39
2022-10-01T23:51:35.830Z,14.35
2022-10-01T23:54:27.347Z,14.27
2022-10-01T23:57:00.537Z,14.24
2022-10-01T23:59:55.690Z,14.23
